El-djazair II — 7TBR — position and weather

sailwx.info

Track history (hours):
 
Tides and Currents Weather Stations Pressure Air Temp Water Temp Dewpoint Dewpoint Depression Visibility Wind Speed Wind Dir Waves Ship Positions

El-djazair II

Last reported at 2015-Jul-06 02:33 UTC. Time now 2015-Jul-06 02:52 UTC.
Position N 38°13' E 000°40'.

Length 146 m; draft 6.3 m.

Type: Passenger vessel. MMSI: 605026190.

Date/timePositionNaut miles runAvg speedWind from/ knotsBaromVisibWave heightAir tempDewpointWater temp
2015-Jul-06 02:33N 38°13' E 000°40'2323.7
2015-Jul-06 01:33N 38°35' E 000°51'2323.2
2015-Jul-06 00:33N 38°57' E 001°02'2323.2
2015-Jul-05 23:33N 39°16' E 001°20'2323.1
2015-Jul-05 22:33N 39°34' E 001°38'2323.3
2015-Jul-05 21:33N 39°53' E 001°56'2323.2
2015-Jul-05 20:33N 40°12' E 002°13'2323.2
2015-Jul-05 19:33N 40°30' E 002°32'2323.2
2015-Jul-05 18:33N 40°49' E 002°49'2323.1
2015-Jul-05 17:33N 41°07' E 003°09'2323.3
2015-Jul-05 16:33N 41°26' E 003°27'2323.4
2015-Jul-05 15:33N 41°44' E 003°46'2322.8
2015-Jul-05 14:33N 42°03' E 004°04'2322.6
2015-Jul-05 13:33N 42°21' E 004°22'2322.9
2015-Jul-05 12:34N 42°39' E 004°40'2323.1
2015-Jul-05 11:33N 42°58' E 004°58'2323.0
2015-Jul-05 10:33N 43°17' E 005°16'4 4.2
2015-Jul-05 09:33N 43°18' E 005°22'0 0.0
2015-Jul-05 08:33N 43°18' E 005°22'0 0.0
2015-Jul-05 07:31N 43°18' E 005°22'9 9.1
2015-Jul-05 06:34N 43°10' E 005°17'2423.7
2015-Jul-05 05:33N 42°46' E 005°17'2423.8
2015-Jul-05 04:33N 42°23' E 005°17'2423.8
2015-Jul-05 03:33N 41°59' E 005°15'2423.8
2015-Jul-05 02:33N 41°35' E 005°15'2423.7
2015-Jul-05 01:33N 41°11' E 005°14'2323.6
2015-Jul-05 00:34N 40°48' E 005°14'2323.4
2015-Jul-04 23:33N 40°24' E 005°13'14223.6
2015-Jul-04 17:33N 38°02' E 005°09'2323.5
2015-Jul-04 16:33N 37°39' E 005°08'59 4.1
2015-Jul-04 02:13N 38°38' E 005°09'6222.9
2015-Jul-03 23:31N 39°39' E 005°11'8023.1
2015-Jul-03 20:04N 40°59' E 005°15'3623.3
2015-Jul-03 18:33N 41°35' E 005°15'2323.3
2015-Jul-03 17:34N 41°58' E 005°16'2323.2
2015-Jul-03 16:33N 42°21' E 005°17'2323.2
2015-Jul-03 15:34N 42°44' E 005°17'2323.0
2015-Jul-03 14:33N 43°07' E 005°18'11 9.1
2015-Jul-03 13:19N 43°18' E 005°22'0 0.0
2015-Jul-03 12:31N 43°18' E 005°22'0 0.0
2015-Jul-03 11:31N 43°18' E 005°22'0 0.0
2015-Jul-03 10:34N 43°18' E 005°22'0 0.0
2015-Jul-03 09:24N 43°18' E 005°22'0 0.1
2015-Jul-03 08:34N 43°18' E 005°22'1716.6
2015-Jul-03 07:33N 43°02' E 005°20'2423.5
2015-Jul-03 06:33N 42°39' E 005°26'2323.2
2015-Jul-03 05:33N 42°16' E 005°33'2323.2
2015-Jul-03 04:34N 41°53' E 005°39'2423.6
2015-Jul-03 03:33N 41°30' E 005°45'2423.6
2015-Jul-03 02:33N 41°07' E 005°51'2323.4
2015-Jul-03 01:33N 40°44' E 005°57'18422.9
2015-Jul-02 17:32N 37°43' E 006°42'2222.6
2015-Jul-02 16:33N 37°22' E 006°48'2423.4
2015-Jul-02 15:32N 36°58' E 006°53'62 6.9
2015-Jul-02 06:33N 37°58' E 007°11'2322.5
2015-Jul-02 05:33N 38°20' E 007°17'2322.5
2015-Jul-02 04:32N 38°43' E 007°22'2222.6
2015-Jul-02 03:33N 39°05' E 007°28'6922.9
2015-Jul-02 00:31N 40°13' E 007°47'2223.1
2015-Jul-01 23:33N 40°34' E 007°53'2323.0
2015-Jul-01 22:33N 40°57' E 007°59'2322.9
2015-Jul-01 21:32N 41°20' E 008°06'2323.3
2015-Jul-01 20:32N 41°42' E 008°12'2323.1
2015-Jul-01 19:34N 42°04' E 008°19'2322.9
2015-Jul-01 18:33N 42°27' E 008°25'2322.9
2015-Jul-01 17:34N 42°49' E 008°31'2323.1
2015-Jul-01 16:33N 43°12' E 008°38'2323.0
2015-Jul-01 15:34N 43°34' E 008°44'2323.4
2015-Jul-01 14:34N 43°57' E 008°51'2323.3
2015-Jul-01 13:34N 44°20' E 008°57'5 4.2
2015-Jul-01 12:24N 44°25' E 008°55'0 0.0
2015-Jul-01 10:33N 44°25' E 008°55'0 0.0
2015-Jul-01 09:27N 44°25' E 008°55'0 0.0
2015-Jul-01 08:30N 44°25' E 008°55'0 0.0
2015-Jul-01 07:33N 44°25' E 008°55'3 2.5
2015-Jul-01 06:33N 44°23' E 008°57'1917.4
2015-Jul-01 05:29N 44°09' E 008°39'2123.2
2015-Jul-01 04:34N 43°54' E 008°18'2322.6
2015-Jul-01 03:33N 43°38' E 007°56'2322.9
2015-Jul-01 02:33N 43°25' E 007°31'2322.8
2015-Jul-01 01:34N 43°11' E 007°05'2521.4
2015-Jul-01 00:22N 42°57' E 006°37'1821.7
2015-Jun-30 23:34N 42°54' E 006°13'2322.6
2015-Jun-30 22:33N 42°60' E 005°43'1919.4
2015-Jun-30 21:33N 43°08' E 005°18'1110.3
2015-Jun-30 20:29N 43°18' E 005°22'0 0.0
2015-Jun-30 19:29N 43°18' E 005°22'0 0.0
2015-Jun-30 18:29N 43°18' E 005°22'0 0.0
2015-Jun-30 17:29N 43°18' E 005°22'0 0.0
2015-Jun-30 16:29N 43°18' E 005°22'0 0.0
2015-Jun-30 15:29N 43°18' E 005°22'0 0.0
2015-Jun-30 14:29N 43°18' E 005°22'0 0.0
2015-Jun-30 13:29N 43°18' E 005°22'0 0.0
2015-Jun-30 12:29N 43°18' E 005°22'0 0.0
2015-Jun-30 11:10N 43°18' E 005°22'0 0.0
2015-Jun-30 10:28N 43°18' E 005°22'0 0.0
2015-Jun-30 09:31N 43°18' E 005°22'0 0.0
2015-Jun-30 08:28N 43°18' E 005°22'0 0.0
2015-Jun-30 07:28N 43°18' E 005°22'0 0.0
2015-Jun-30 06:28N 43°18' E 005°22'0 0.0
2015-Jun-30 05:28N 43°18' E 005°22'0 0.0
2015-Jun-30 04:28N 43°18' E 005°22'0 0.0
2015-Jun-30 03:28N 43°18' E 005°22'0 0.0
2015-Jun-30 02:28N 43°18' E 005°22'0 0.0
2015-Jun-30 01:28N 43°18' E 005°22'0 0.0
2015-Jun-30 00:31N 43°18' E 005°22'0 0.0
2015-Jun-29 23:31N 43°18' E 005°22'0 0.0
2015-Jun-29 22:31N 43°18' E 005°22'0 0.0
2015-Jun-29 21:31N 43°18' E 005°22'0 0.0
2015-Jun-29 20:28N 43°18' E 005°22'0 0.0
2015-Jun-29 19:28N 43°18' E 005°22'0 0.0
2015-Jun-29 18:31N 43°18' E 005°22'0 0.0
2015-Jun-29 17:31N 43°18' E 005°22'0 0.0
2015-Jun-29 16:31N 43°18' E 005°22'0 0.0
2015-Jun-29 15:31N 43°18' E 005°22'0 0.0
2015-Jun-29 14:22N 43°18' E 005°22'0 0.0
2015-Jun-29 13:28N 43°18' E 005°22'0 0.0
2015-Jun-29 12:28N 43°18' E 005°22'0 0.0
2015-Jun-29 11:28N 43°18' E 005°22'0 0.0
2015-Jun-29 10:31N 43°18' E 005°22'0 0.0
2015-Jun-29 09:10N 43°18' E 005°22'0 0.0
2015-Jun-29 08:28N 43°18' E 005°22'0 0.0
2015-Jun-29 07:33N 43°18' E 005°22'1212.0
2015-Jun-29 06:33N 43°06' E 005°20'2423.6
2015-Jun-29 05:33N 42°44' E 005°29'2423.7
2015-Jun-29 04:33N 42°21' E 005°39'2423.8
2015-Jun-29 03:33N 41°59' E 005°49'2723.9
2015-Jun-29 02:27N 41°33' E 005°59'2323.7
2015-Jun-29 01:30N 41°12' E 006°08'16423.4
2015-Jun-28 18:29N 38°35' E 007°11'2323.0
2015-Jun-28 17:28N 38°12' E 007°20'80 2.3
2015-Jun-27 06:30N 36°56' E 007°48'14123.6
2015-Jun-27 00:32N 39°11' E 006°57'9723.5
2015-Jun-26 20:23N 40°44' E 006°19'2023.4
2015-Jun-26 19:33N 41°03' E 006°12'2323.2
2015-Jun-26 18:33N 41°25' E 006°03'2323.1
2015-Jun-26 17:34N 41°47' E 005°54'2323.3
2015-Jun-26 16:33N 42°09' E 005°44'2323.3
2015-Jun-26 15:34N 42°31' E 005°35'2722.9
2015-Jun-26 14:24N 42°57' E 005°25'1922.5
2015-Jun-26 13:33N 43°15' E 005°19'3 3.4
2015-Jun-26 12:33N 43°18' E 005°22'0 0.0
2015-Jun-26 11:30N 43°18' E 005°22'0 0.0
2015-Jun-26 10:27N 43°18' E 005°22'0 0.0
2015-Jun-26 09:24N 43°18' E 005°22'0 0.0
2015-Jun-26 08:33N 43°18' E 005°22'0 0.0
2015-Jun-26 07:30N 43°18' E 005°22'0 0.0
2015-Jun-26 06:24N 43°18' E 005°22'0 0.0
2015-Jun-26 05:21N 43°18' E 005°22'0 0.0
2015-Jun-26 04:30N 43°18' E 005°22'0 0.0
2015-Jun-26 03:33N 43°18' E 005°22'  
Track history (hours):
 
Tides and Currents Weather Stations Pressure Air Temp Water Temp Dewpoint Dewpoint Depression Visibility Wind Speed Wind Dir Waves Ship Positions

El-djazair II

Last reported at 2015-Jul-06 02:33 UTC. Time now 2015-Jul-06 02:52 UTC.
Position N 38°13' E 000°40'.

Length 146 m; draft 6.3 m.

Type: Passenger vessel. MMSI: 605026190.

Date/timePositionNaut miles runAvg speedWind from/ knotsBaromVisibWave heightAir tempDewpointWater temp
2015-Jul-06 02:33N 38°13' E 000°40'2323.7
2015-Jul-06 01:33N 38°35' E 000°51'2323.2
2015-Jul-06 00:33N 38°57' E 001°02'2323.2
2015-Jul-05 23:33N 39°16' E 001°20'2323.1
2015-Jul-05 22:33N 39°34' E 001°38'2323.3
2015-Jul-05 21:33N 39°53' E 001°56'2323.2
2015-Jul-05 20:33N 40°12' E 002°13'2323.2
2015-Jul-05 19:33N 40°30' E 002°32'2323.2
2015-Jul-05 18:33N 40°49' E 002°49'2323.1
2015-Jul-05 17:33N 41°07' E 003°09'2323.3
2015-Jul-05 16:33N 41°26' E 003°27'2323.4
2015-Jul-05 15:33N 41°44' E 003°46'2322.8
2015-Jul-05 14:33N 42°03' E 004°04'2322.6
2015-Jul-05 13:33N 42°21' E 004°22'2322.9
2015-Jul-05 12:34N 42°39' E 004°40'2323.1
2015-Jul-05 11:33N 42°58' E 004°58'2323.0
2015-Jul-05 10:33N 43°17' E 005°16'4 4.2
2015-Jul-05 09:33N 43°18' E 005°22'0 0.0
2015-Jul-05 08:33N 43°18' E 005°22'0 0.0
2015-Jul-05 07:31N 43°18' E 005°22'9 9.1
2015-Jul-05 06:34N 43°10' E 005°17'2423.7
2015-Jul-05 05:33N 42°46' E 005°17'2423.8
2015-Jul-05 04:33N 42°23' E 005°17'2423.8
2015-Jul-05 03:33N 41°59' E 005°15'2423.8
2015-Jul-05 02:33N 41°35' E 005°15'2423.7
2015-Jul-05 01:33N 41°11' E 005°14'2323.6
2015-Jul-05 00:34N 40°48' E 005°14'2323.4
2015-Jul-04 23:33N 40°24' E 005°13'14223.6
2015-Jul-04 17:33N 38°02' E 005°09'2323.5
2015-Jul-04 16:33N 37°39' E 005°08'59 4.1
2015-Jul-04 02:13N 38°38' E 005°09'6222.9
2015-Jul-03 23:31N 39°39' E 005°11'8023.1
2015-Jul-03 20:04N 40°59' E 005°15'3623.3
2015-Jul-03 18:33N 41°35' E 005°15'2323.3
2015-Jul-03 17:34N 41°58' E 005°16'2323.2
2015-Jul-03 16:33N 42°21' E 005°17'2323.2
2015-Jul-03 15:34N 42°44' E 005°17'2323.0
2015-Jul-03 14:33N 43°07' E 005°18'11 9.1
2015-Jul-03 13:19N 43°18' E 005°22'0 0.0
2015-Jul-03 12:31N 43°18' E 005°22'0 0.0
2015-Jul-03 11:31N 43°18' E 005°22'0 0.0
2015-Jul-03 10:34N 43°18' E 005°22'0 0.0
2015-Jul-03 09:24N 43°18' E 005°22'0 0.1
2015-Jul-03 08:34N 43°18' E 005°22'1716.6
2015-Jul-03 07:33N 43°02' E 005°20'2423.5
2015-Jul-03 06:33N 42°39' E 005°26'2323.2
2015-Jul-03 05:33N 42°16' E 005°33'2323.2
2015-Jul-03 04:34N 41°53' E 005°39'2423.6
2015-Jul-03 03:33N 41°30' E 005°45'2423.6
2015-Jul-03 02:33N 41°07' E 005°51'2323.4
2015-Jul-03 01:33N 40°44' E 005°57'18422.9
2015-Jul-02 17:32N 37°43' E 006°42'2222.6
2015-Jul-02 16:33N 37°22' E 006°48'2423.4
2015-Jul-02 15:32N 36°58' E 006°53'62 6.9
2015-Jul-02 06:33N 37°58' E 007°11'2322.5
2015-Jul-02 05:33N 38°20' E 007°17'2322.5
2015-Jul-02 04:32N 38°43' E 007°22'2222.6
2015-Jul-02 03:33N 39°05' E 007°28'6922.9
2015-Jul-02 00:31N 40°13' E 007°47'2223.1
2015-Jul-01 23:33N 40°34' E 007°53'2323.0
2015-Jul-01 22:33N 40°57' E 007°59'2322.9
2015-Jul-01 21:32N 41°20' E 008°06'2323.3
2015-Jul-01 20:32N 41°42' E 008°12'2323.1
2015-Jul-01 19:34N 42°04' E 008°19'2322.9
2015-Jul-01 18:33N 42°27' E 008°25'2322.9
2015-Jul-01 17:34N 42°49' E 008°31'2323.1
2015-Jul-01 16:33N 43°12' E 008°38'2323.0
2015-Jul-01 15:34N 43°34' E 008°44'2323.4
2015-Jul-01 14:34N 43°57' E 008°51'2323.3
2015-Jul-01 13:34N 44°20' E 008°57'5 4.2
2015-Jul-01 12:24N 44°25' E 008°55'0 0.0
2015-Jul-01 10:33N 44°25' E 008°55'0 0.0
2015-Jul-01 09:27N 44°25' E 008°55'0 0.0
2015-Jul-01 08:30N 44°25' E 008°55'0 0.0
2015-Jul-01 07:33N 44°25' E 008°55'3 2.5
2015-Jul-01 06:33N 44°23' E 008°57'1917.4
2015-Jul-01 05:29N 44°09' E 008°39'2123.2
2015-Jul-01 04:34N 43°54' E 008°18'2322.6
2015-Jul-01 03:33N 43°38' E 007°56'2322.9
2015-Jul-01 02:33N 43°25' E 007°31'2322.8
2015-Jul-01 01:34N 43°11' E 007°05'2521.4
2015-Jul-01 00:22N 42°57' E 006°37'1821.7
2015-Jun-30 23:34N 42°54' E 006°13'2322.6
2015-Jun-30 22:33N 42°60' E 005°43'1919.4
2015-Jun-30 21:33N 43°08' E 005°18'1110.3
2015-Jun-30 20:29N 43°18' E 005°22'0 0.0
2015-Jun-30 19:29N 43°18' E 005°22'0 0.0
2015-Jun-30 18:29N 43°18' E 005°22'0 0.0
2015-Jun-30 17:29N 43°18' E 005°22'0 0.0
2015-Jun-30 16:29N 43°18' E 005°22'0 0.0
2015-Jun-30 15:29N 43°18' E 005°22'0 0.0
2015-Jun-30 14:29N 43°18' E 005°22'0 0.0
2015-Jun-30 13:29N 43°18' E 005°22'0 0.0
2015-Jun-30 12:29N 43°18' E 005°22'0 0.0
2015-Jun-30 11:10N 43°18' E 005°22'0 0.0
2015-Jun-30 10:28N 43°18' E 005°22'0 0.0
2015-Jun-30 09:31N 43°18' E 005°22'0 0.0
2015-Jun-30 08:28N 43°18' E 005°22'0 0.0
2015-Jun-30 07:28N 43°18' E 005°22'0 0.0
2015-Jun-30 06:28N 43°18' E 005°22'0 0.0
2015-Jun-30 05:28N 43°18' E 005°22'0 0.0
2015-Jun-30 04:28N 43°18' E 005°22'0 0.0
2015-Jun-30 03:28N 43°18' E 005°22'0 0.0
2015-Jun-30 02:28N 43°18' E 005°22'0 0.0
2015-Jun-30 01:28N 43°18' E 005°22'0 0.0
2015-Jun-30 00:31N 43°18' E 005°22'0 0.0
2015-Jun-29 23:31N 43°18' E 005°22'0 0.0
2015-Jun-29 22:31N 43°18' E 005°22'0 0.0
2015-Jun-29 21:31N 43°18' E 005°22'0 0.0
2015-Jun-29 20:28N 43°18' E 005°22'0 0.0
2015-Jun-29 19:28N 43°18' E 005°22'0 0.0
2015-Jun-29 18:31N 43°18' E 005°22'0 0.0
2015-Jun-29 17:31N 43°18' E 005°22'0 0.0
2015-Jun-29 16:31N 43°18' E 005°22'0 0.0
2015-Jun-29 15:31N 43°18' E 005°22'0 0.0
2015-Jun-29 14:22N 43°18' E 005°22'0 0.0
2015-Jun-29 13:28N 43°18' E 005°22'0 0.0
2015-Jun-29 12:28N 43°18' E 005°22'0 0.0
2015-Jun-29 11:28N 43°18' E 005°22'0 0.0
2015-Jun-29 10:31N 43°18' E 005°22'0 0.0
2015-Jun-29 09:10N 43°18' E 005°22'0 0.0
2015-Jun-29 08:28N 43°18' E 005°22'0 0.0
2015-Jun-29 07:33N 43°18' E 005°22'1212.0
2015-Jun-29 06:33N 43°06' E 005°20'2423.6
2015-Jun-29 05:33N 42°44' E 005°29'2423.7
2015-Jun-29 04:33N 42°21' E 005°39'2423.8
2015-Jun-29 03:33N 41°59' E 005°49'2723.9
2015-Jun-29 02:27N 41°33' E 005°59'2323.7
2015-Jun-29 01:30N 41°12' E 006°08'16423.4
2015-Jun-28 18:29N 38°35' E 007°11'2323.0
2015-Jun-28 17:28N 38°12' E 007°20'80 2.3
2015-Jun-27 06:30N 36°56' E 007°48'14123.6
2015-Jun-27 00:32N 39°11' E 006°57'9723.5
2015-Jun-26 20:23N 40°44' E 006°19'2023.4
2015-Jun-26 19:33N 41°03' E 006°12'2323.2
2015-Jun-26 18:33N 41°25' E 006°03'2323.1
2015-Jun-26 17:34N 41°47' E 005°54'2323.3
2015-Jun-26 16:33N 42°09' E 005°44'2323.3
2015-Jun-26 15:34N 42°31' E 005°35'2722.9
2015-Jun-26 14:24N 42°57' E 005°25'1922.5
2015-Jun-26 13:33N 43°15' E 005°19'3 3.4
2015-Jun-26 12:33N 43°18' E 005°22'0 0.0
2015-Jun-26 11:30N 43°18' E 005°22'0 0.0
2015-Jun-26 10:27N 43°18' E 005°22'0 0.0
2015-Jun-26 09:24N 43°18' E 005°22'0 0.0
2015-Jun-26 08:33N 43°18' E 005°22'0 0.0
2015-Jun-26 07:30N 43°18' E 005°22'0 0.0
2015-Jun-26 06:24N 43°18' E 005°22'0 0.0
2015-Jun-26 05:21N 43°18' E 005°22'0 0.0
2015-Jun-26 04:30N 43°18' E 005°22'0 0.0
2015-Jun-26 03:33N 43°18' E 005°22'  

Dump ship's entire track history